Time;durP1;ratioP1;P1;durP2;ratioP2;P2;SDS_P1;SDS_P2;PMS_P1;PMS_P2;Temp;Humidity;BMP_temperature;BMP_pressure;BME280_temperature;BME280_humidity;BME280_pressure;Samples;Min_cycle;Max_cycle;Signal;HPM_P1;HPM_P2
2024/04/11 00:01:35;;;;;;;6.93;1.95;;;;;;;13.38;68.08;102119.53;5438925;26;20550;-66
2024/04/11 00:04:01;;;;;;;5.30;2.58;;;;;;;13.20;69.32;102113.53;5408157;26;19992;-67
2024/04/11 00:06:26;;;;;;;3.30;2.42;;;;;;;13.20;69.13;102112.78;5411141;26;20003;-67
2024/04/11 00:08:52;;;;;;;6.53;2.25;;;;;;;13.26;68.72;102104.09;5436391;26;20003;-67
2024/04/11 00:11:18;;;;;;;4.93;2.33;;;;;;;13.26;69.14;102106.78;5436269;26;20002;-67
2024/04/11 00:13:44;;;;;;;5.00;2.83;;;;;;;13.07;69.72;102101.13;5414788;26;20021;-67
2024/04/11 00:16:11;;;;;;;5.88;2.63;;;;;;;13.01;69.94;102093.53;5432275;26;20014;-67
2024/04/11 00:18:39;;;;;;;4.57;2.42;;;;;;;13.05;70.30;102099.88;5439873;26;20007;-67
2024/04/11 00:21:05;;;;;;;4.07;2.30;;;;;;;13.08;69.99;102088.41;5443169;26;20695;-67
2024/04/11 00:23:31;;;;;;;5.32;2.17;;;;;;;13.07;70.42;102092.22;5414892;26;19995;-67
2024/04/11 00:25:59;;;;;;;3.97;2.25;;;;;;;13.07;70.16;102098.44;5434293;26;19998;-67
2024/04/11 00:28:26;;;;;;;3.38;2.20;;;;;;;13.15;69.76;102092.13;5444466;26;20031;-67
2024/04/11 00:30:53;;;;;;;4.35;2.53;;;;;;;13.18;69.43;102098.78;5440977;26;20321;-67
2024/04/11 00:33:18;;;;;;;4.13;2.30;;;;;;;13.07;70.38;102095.72;5439866;26;19999;-67
2024/04/11 00:35:49;;;;;;;10.32;2.55;;;;;;;13.06;70.76;102087.94;5444904;26;20017;-67
2024/04/11 00:38:22;;;;;;;2.60;2.00;;;;;;;13.04;70.63;102091.00;5441731;26;20017;-67
2024/04/11 00:40:55;;;;;;;4.10;2.17;;;;;;;12.94;70.58;102085.19;5443557;26;20063;-66
2024/04/11 00:43:26;;;;;;;8.73;2.55;;;;;;;13.03;70.36;102088.56;5416469;26;20351;-67
2024/04/11 00:45:55;;;;;;;3.17;2.00;;;;;;;13.02;69.98;102074.28;5439950;26;20460;-69
2024/04/11 00:48:21;;;;;;;5.15;2.30;;;;;;;13.08;69.72;102067.56;5439629;26;20529;-66
2024/04/11 00:50:50;;;;;;;4.22;2.35;;;;;;;12.97;69.11;102060.97;5415941;26;20007;-66
2024/04/11 00:53:18;;;;;;;5.68;2.08;;;;;;;12.83;70.23;102057.81;5473253;26;20430;-66
2024/04/11 00:55:44;;;;;;;3.92;1.83;;;;;;;12.89;70.26;102067.25;5442831;26;20017;-69
2024/04/11 00:58:12;;;;;;;3.67;2.15;;;;;;;12.80;70.52;102054.94;5432636;26;20007;-69
2024/04/11 01:00:38;;;;;;;4.03;2.45;;;;;;;12.76;71.25;102071.06;5443387;26;20007;-67
2024/04/11 01:03:04;;;;;;;3.80;2.15;;;;;;;12.77;71.53;102074.56;5441944;26;20003;-66
2024/04/11 01:05:34;;;;;;;3.60;1.98;;;;;;;12.85;70.88;102084.50;5432804;26;20011;-68
2024/04/11 01:08:07;;;;;;;9.75;2.67;;;;;;;12.94;70.17;102082.47;5436801;26;20441;-68
2024/04/11 01:10:37;;;;;;;2.83;1.92;;;;;;;12.99;69.66;102087.69;5441099;26;20063;-66
2024/04/11 01:13:06;;;;;;;8.02;2.55;;;;;;;12.86;70.21;102091.47;5407131;26;20007;-68
2024/04/11 01:15:34;;;;;;;6.55;2.58;;;;;;;12.81;70.95;102091.69;5441041;26;20006;-67
2024/04/11 01:18:01;;;;;;;5.43;2.45;;;;;;;12.92;70.28;102101.75;5435818;26;20011;-67
2024/04/11 01:20:27;;;;;;;5.85;2.70;;;;;;;12.97;69.87;102098.06;5407223;26;20011;-67
2024/04/11 01:22:53;;;;;;;4.75;2.47;;;;;;;13.06;69.23;102093.38;5445018;26;19999;-67
2024/04/11 01:25:19;;;;;;;7.82;2.67;;;;;;;13.09;69.53;102085.34;5434563;26;20015;-67
2024/04/11 01:27:45;;;;;;;6.05;2.05;;;;;;;13.10;69.25;102086.16;5409050;26;19998;-68
2024/04/11 01:30:11;;;;;;;3.28;2.47;;;;;;;13.12;69.83;102084.72;5433022;26;20012;-68
2024/04/11 01:32:38;;;;;;;4.97;2.35;;;;;;;13.10;69.71;102081.53;5444607;26;19999;-68
2024/04/11 01:35:08;;;;;;;3.78;2.28;;;;;;;13.13;69.18;102069.25;5409368;26;20009;-68
2024/04/11 01:37:35;;;;;;;3.85;2.20;;;;;;;13.16;68.91;102069.34;5438095;26;20000;-67
2024/04/11 01:40:01;;;;;;;4.68;2.83;;;;;;;13.22;68.13;102059.13;5413617;26;20512;-68
2024/04/11 01:42:27;;;;;;;4.57;2.33;;;;;;;13.15;68.71;102062.38;5445988;26;20021;-68
2024/04/11 01:44:53;;;;;;;4.82;2.50;;;;;;;13.14;68.74;102062.72;5417370;26;20003;-67
2024/04/11 01:47:18;;;;;;;3.83;2.20;;;;;;;13.07;68.72;102055.16;5437763;26;20074;-67
2024/04/11 01:49:44;;;;;;;3.83;2.22;;;;;;;13.10;68.23;102053.69;5443316;26;20010;-67
2024/04/11 01:52:10;;;;;;;4.15;2.35;;;;;;;13.07;68.65;102059.75;5442829;26;20014;-68
2024/04/11 01:54:41;;;;;;;7.30;3.03;;;;;;;12.93;69.21;102054.66;5434748;26;20011;-67
2024/04/11 01:57:08;;;;;;;6.13;2.65;;;;;;;12.87;69.98;102056.00;5440150;26;20002;-67
2024/04/11 01:59:34;;;;;;;3.00;1.80;;;;;;;12.85;69.64;102055.56;5444350;26;20039;-67
2024/04/11 02:02:08;;;;;;;8.90;2.00;;;;;;;12.93;69.84;102053.88;5409129;26;19992;-67
2024/04/11 02:04:34;;;;;;;3.72;2.20;;;;;;;12.99;68.32;102057.94;5441948;26;20009;-67
2024/04/11 02:07:04;;;;;;;8.18;2.15;;;;;;;12.95;69.41;102057.03;5438780;26;20074;-67
2024/04/11 02:09:31;;;;;;;5.53;2.23;;;;;;;13.00;69.53;102057.59;5448712;26;20010;-67
2024/04/11 02:11:57;;;;;;;3.75;2.40;;;;;;;13.03;68.77;102056.94;5414441;26;20271;-67
2024/04/11 02:14:23;;;;;;;3.65;1.88;;;;;;;12.98;68.54;102059.06;5437466;26;20325;-67
2024/04/11 02:16:50;;;;;;;4.38;2.20;;;;;;;13.00;68.63;102064.91;5442912;26;20100;-68
2024/04/11 02:19:16;;;;;;;5.20;2.13;;;;;;;13.05;68.66;102056.59;5444277;26;20022;-67
2024/04/11 02:21:42;;;;;;;2.92;1.85;;;;;;;13.10;68.20;102057.19;5409569;26;19997;-68
2024/04/11 02:24:11;;;;;;;3.38;2.22;;;;;;;13.07;68.24;102054.34;5436407;26;19995;-67
2024/04/11 02:26:37;;;;;;;3.53;1.90;;;;;;;13.09;67.58;102060.22;5436631;26;20035;-67
2024/04/11 02:29:06;;;;;;;6.35;2.42;;;;;;;12.98;68.40;102054.44;5432232;26;19995;-68
2024/04/11 02:31:35;;;;;;;7.03;2.42;;;;;;;13.02;68.51;102051.84;5433454;26;20347;-67
2024/04/11 02:34:01;;;;;;;3.38;2.25;;;;;;;13.01;68.19;102042.94;5433722;26;20007;-67
2024/04/11 02:36:29;;;;;;;4.03;2.05;;;;;;;12.92;69.07;102042.25;5441510;26;20481;-67
2024/04/11 02:38:59;;;;;;;9.45;2.22;;;;;;;12.99;68.88;102047.91;5416544;26;19999;-68
2024/04/11 02:41:27;;;;;;;4.63;2.30;;;;;;;13.05;68.91;102035.78;5439605;26;20473;-68
2024/04/11 02:43:56;;;;;;;3.83;2.15;;;;;;;13.12;68.82;102041.44;5439835;26;20023;-68
2024/04/11 02:46:22;;;;;;;4.50;2.20;;;;;;;13.04;67.95;102041.53;5408281;26;19995;-69
2024/04/11 02:48:48;;;;;;;3.30;2.00;;;;;;;13.00;68.23;102040.59;5444734;26;19998;-68
2024/04/11 02:51:14;;;;;;;2.42;1.70;;;;;;;13.19;67.09;102047.06;5415646;26;20002;-68
2024/04/11 02:53:41;;;;;;;2.72;1.73;;;;;;;13.23;66.63;102050.66;5417353;26;19995;-68
2024/04/11 02:56:07;;;;;;;4.28;1.88;;;;;;;13.14;67.74;102057.31;5438260;26;19995;-68
2024/04/11 02:58:37;;;;;;;1.80;1.60;;;;;;;13.14;67.88;102038.38;5445564;26;20050;-67
2024/04/11 03:01:06;;;;;;;2.17;1.58;;;;;;;13.15;67.53;102042.66;5419121;26;20075;-67
2024/04/11 03:03:34;;;;;;;4.72;1.80;;;;;;;13.22;68.07;102038.25;5448086;26;20006;-66
2024/04/11 03:06:21;;;;;;;4.20;1.88;;;;;;;13.31;67.08;102038.16;5449169;26;20001;-67
2024/04/11 03:08:58;;;;;;;5.57;1.85;;;;;;;13.37;67.22;102025.97;5411468;26;20071;-67
2024/04/11 03:11:24;;;;;;;4.93;1.70;;;;;;;13.34;66.34;102032.03;5443143;26;20446;-68
2024/04/11 03:13:57;;;;;;;2.97;1.35;;;;;;;13.17;66.62;102026.88;5442840;26;20073;-68
2024/04/11 03:16:27;;;;;;;3.90;1.73;;;;;;;13.23;66.93;102022.81;5409463;26;20065;-68
2024/04/11 03:18:53;;;;;;;2.65;1.50;;;;;;;13.29;66.55;102014.16;5442279;26;20017;-68
2024/04/11 03:21:19;;;;;;;6.22;1.90;;;;;;;13.41;65.55;101999.81;5444631;26;19994;-68
2024/04/11 03:23:46;;;;;;;2.10;1.40;;;;;;;13.34;66.34;102011.19;5431885;26;19995;-69
2024/04/11 03:26:11;;;;;;;4.65;1.42;;;;;;;13.41;65.80;101999.81;5438698;26;20022;-69
2024/04/11 03:28:37;;;;;;;1.70;1.38;;;;;;;13.33;65.94;101998.00;5438286;26;19998;-69
2024/04/11 03:31:08;;;;;;;4.60;1.40;;;;;;;13.25;64.88;101991.59;5415528;26;20007;-68
2024/04/11 03:33:37;;;;;;;1.23;1.13;;;;;;;13.38;65.06;101995.88;5449281;26;20010;-68
2024/04/11 03:36:10;;;;;;;1.90;1.23;;;;;;;13.29;65.09;101994.41;5438265;26;20000;-69
2024/04/11 03:38:37;;;;;;;5.85;1.45;;;;;;;13.48;65.62;101984.56;5411773;26;20030;-68
2024/04/11 03:41:08;;;;;;;4.57;1.60;;;;;;;13.53;65.85;101988.94;5433389;26;20074;-68
2024/04/11 03:43:34;;;;;;;1.48;1.38;;;;;;;13.56;66.35;101989.06;5448896;26;19999;-68
2024/04/11 03:46:05;;;;;;;1.48;1.20;;;;;;;13.40;66.52;101987.41;5440072;26;20007;-68
2024/04/11 03:48:31;;;;;;;2.55;1.35;;;;;;;13.34;66.16;101988.75;5418982;26;20676;-68
2024/04/11 03:50:56;;;;;;;5.30;1.63;;;;;;;13.34;66.35;101983.34;5442156;26;19991;-68
2024/04/11 03:53:22;;;;;;;4.32;1.40;;;;;;;13.36;66.40;101984.59;5411510;26;19995;-69
2024/04/11 03:55:48;;;;;;;1.75;1.27;;;;;;;13.37;67.22;101977.25;5445438;26;20455;-68
2024/04/11 03:58:16;;;;;;;3.85;1.48;;;;;;;13.45;66.03;101979.84;5443793;26;20072;-68
2024/04/11 04:00:45;;;;;;;3.17;1.38;;;;;;;13.46;66.59;101981.41;5444412;26;20390;-70
2024/04/11 04:03:11;;;;;;;3.03;1.60;;;;;;;13.52;65.96;101976.56;5437375;26;20000;-69
2024/04/11 04:05:38;;;;;;;2.55;1.25;;;;;;;13.63;65.81;101968.75;5439844;26;20010;-68
2024/04/11 04:08:04;;;;;;;1.98;1.25;;;;;;;13.50;65.51;101959.88;5418197;26;19994;-68
2024/04/11 04:10:31;;;;;;;3.28;1.85;;;;;;;13.61;65.35;101965.63;5440803;26;20072;-69
2024/04/11 04:12:58;;;;;;;2.22;1.20;;;;;;;13.39;66.42;101951.41;5441688;26;20007;-68
2024/04/11 04:15:24;;;;;;;3.33;1.70;;;;;;;13.36;66.25;101949.41;5432810;26;20516;-69
2024/04/11 04:17:51;;;;;;;2.97;1.52;;;;;;;13.43;65.71;101952.31;5415041;26;20071;-68
2024/04/11 04:20:17;;;;;;;6.78;1.77;;;;;;;13.45;65.95;101941.94;5438357;26;19996;-68
2024/04/11 04:22:44;;;;;;;3.53;1.80;;;;;;;13.44;66.21;101945.00;5417294;26;20006;-69
2024/04/11 04:25:11;;;;;;;5.05;2.15;;;;;;;13.28;65.47;101953.03;5470208;26;19999;-68
2024/04/11 04:27:38;;;;;;;5.25;1.70;;;;;;;13.32;65.88;101956.63;5438181;26;20014;-68
2024/04/11 04:30:09;;;;;;;7.00;1.70;;;;;;;13.23;65.72;101945.16;5446644;26;19995;-68
2024/04/11 04:32:36;;;;;;;2.03;1.52;;;;;;;13.33;66.01;101954.72;5435852;26;20003;-68
2024/04/11 04:35:06;;;;;;;1.00;0.80;;;;;;;13.42;65.34;101953.47;5444737;26;20014;-68
2024/04/11 04:37:34;;;;;;;2.30;1.83;;;;;;;13.50;65.32;101949.03;5437620;26;19998;-69
2024/04/11 04:40:00;;;;;;;3.35;1.63;;;;;;;13.45;65.77;101949.28;5416734;26;20014;-68
2024/04/11 04:42:26;;;;;;;2.92;1.55;;;;;;;13.44;65.94;101956.63;5446731;26;20011;-68
2024/04/11 04:44:54;;;;;;;5.15;1.42;;;;;;;13.58;64.39;101958.97;5443390;26;20007;-69
2024/04/11 04:47:28;;;;;;;3.45;1.30;;;;;;;13.57;64.96;101960.88;5445906;26;20460;-68
2024/04/11 04:49:59;;;;;;;1.23;1.05;;;;;;;13.64;64.47;101963.00;5443595;26;20006;-69
2024/04/11 04:52:25;;;;;;;1.73;1.20;;;;;;;13.63;64.52;101957.94;5404434;26;20094;-69
2024/04/11 04:54:51;;;;;;;3.63;1.38;;;;;;;13.43;64.93;101960.44;5445761;26;20336;-68
2024/04/11 04:57:19;;;;;;;6.28;1.38;;;;;;;13.72;63.15;101967.50;5439840;26;19996;-68
2024/04/11 04:59:45;;;;;;;2.20;1.15;;;;;;;13.68;63.72;101965.81;5414019;26;20010;-68
2024/04/11 05:02:12;;;;;;;3.55;1.40;;;;;;;13.62;64.04;101967.16;5435275;26;20080;-68
2024/04/11 05:04:40;;;;;;;1.83;1.10;;;;;;;13.73;63.68;101960.94;5440271;26;20096;-68
2024/04/11 05:07:08;;;;;;;1.92;1.05;;;;;;;13.69;63.63;101962.75;5434596;26;20080;-68
2024/04/11 05:09:37;;;;;;;4.80;1.27;;;;;;;13.55;62.95;101970.44;5416066;26;19999;-68
2024/04/11 05:12:07;;;;;;;4.68;0.80;;;;;;;13.63;62.34;101963.34;5439780;26;20011;-68
2024/04/11 05:14:38;;;;;;;3.35;1.08;;;;;;;13.73;62.97;101962.84;5416579;26;19999;-68
2024/04/11 05:17:10;;;;;;;3.22;1.05;;;;;;;13.93;62.66;101951.06;5415157;26;20011;-68
2024/04/11 05:19:35;;;;;;;2.92;0.85;;;;;;;13.88;61.61;101945.91;5412084;26;19999;-68
2024/04/11 05:22:04;;;;;;;1.85;1.10;;;;;;;13.86;61.27;101953.56;5405699;26;20010;-68
2024/04/11 05:24:30;;;;;;;3.70;0.90;;;;;;;13.92;61.42;101949.47;5447377;26;20003;-68
2024/04/11 05:26:56;;;;;;;1.88;0.98;;;;;;;13.95;60.78;101946.88;5444228;26;20486;-68
2024/04/11 05:29:25;;;;;;;5.13;1.00;;;;;;;13.62;61.32;101948.22;5444810;26;19998;-68
2024/04/11 05:31:50;;;;;;;0.85;0.77;;;;;;;13.71;61.48;101938.03;5443963;26;19994;-69
2024/04/11 05:34:20;;;;;;;6.50;1.30;;;;;;;13.80;60.47;101941.41;5416777;26;19999;-69
2024/04/11 05:36:45;;;;;;;5.57;0.88;;;;;;;13.72;60.87;101934.22;5438703;26;20071;-69
2024/04/11 05:39:14;;;;;;;3.40;1.00;;;;;;;13.95;60.14;101938.75;5438080;26;20003;-69
2024/04/11 05:41:43;;;;;;;3.40;1.25;;;;;;;14.00;60.27;101938.50;5444253;26;19999;-69
2024/04/11 05:44:10;;;;;;;1.35;1.08;;;;;;;14.14;59.74;101929.94;5413583;26;19991;-68
2024/04/11 05:46:36;;;;;;;4.35;1.10;;;;;;;14.15;59.00;101937.72;5424232;26;20011;-68
2024/04/11 05:49:04;;;;;;;3.10;1.17;;;;;;;13.94;59.85;101937.16;5439747;26;20013;-68
2024/04/11 05:51:30;;;;;;;1.88;0.95;;;;;;;13.90;60.79;101930.84;5443179;26;20934;-69
2024/04/11 05:53:55;;;;;;;2.83;0.73;;;;;;;14.01;60.38;101940.06;5417253;26;20045;-68
2024/04/11 05:56:21;;;;;;;6.10;1.05;;;;;;;13.89;60.90;101945.53;5443223;26;19995;-68
2024/04/11 05:58:49;;;;;;;0.90;0.80;;;;;;;14.11;60.78;101952.34;5443308;26;19999;-67
2024/04/11 06:01:15;;;;;;;0.73;0.73;;;;;;;14.02;60.63;101955.19;5445827;26;20071;-68
2024/04/11 06:03:54;;;;;;;1.52;1.00;;;;;;;14.29;60.00;101959.81;5407322;26;20012;-68
2024/04/11 06:06:20;;;;;;;3.67;0.82;;;;;;;14.28;59.72;101958.25;5441554;26;20006;-68
2024/04/11 06:08:47;;;;;;;0.43;0.38;;;;;;;14.24;59.87;101953.84;5438982;26;19999;-68
2024/04/11 06:11:14;;;;;;;3.45;0.63;;;;;;;14.25;60.19;101958.09;5449169;26;19999;-68
2024/04/11 06:13:41;;;;;;;3.95;0.70;;;;;;;14.21;61.71;101962.66;5424431;26;20007;-68
2024/04/11 06:16:06;;;;;;;3.53;0.80;;;;;;;14.05;64.40;101959.91;5440827;26;19998;-68
2024/04/11 06:18:36;;;;;;;1.52;0.95;;;;;;;14.25;63.94;101963.53;5446752;26;20071;-68
2024/04/11 06:21:05;;;;;;;2.85;0.80;;;;;;;14.21;64.44;101963.44;5438228;26;20014;-68
2024/04/11 06:23:32;;;;;;;2.65;0.77;;;;;;;14.26;63.24;101955.06;5444621;26;20021;-69
2024/04/11 06:26:02;;;;;;;1.50;0.60;;;;;;;14.30;63.50;101957.91;5448087;26;20007;-68
2024/04/11 06:28:28;;;;;;;3.58;0.85;;;;;;;14.39;63.20;101956.59;5439304;26;19994;-68
2024/04/11 06:30:54;;;;;;;5.25;0.80;;;;;;;14.53;62.34;101960.81;5435734;26;20009;-68
2024/04/11 06:33:22;;;;;;;1.58;0.77;;;;;;;14.51;62.63;101963.06;5438144;26;19995;-69
2024/04/11 06:35:51;;;;;;;1.30;0.80;;;;;;;14.46;61.47;101964.13;5448997;26;19999;-69
2024/04/11 06:38:20;;;;;;;4.43;0.60;;;;;;;14.39;61.96;101974.78;5433425;26;20018;-68
2024/04/11 06:40:47;;;;;;;1.23;0.80;;;;;;;14.38;61.80;101962.38;5416893;26;20012;-68
2024/04/11 06:43:16;;;;;;;1.48;0.77;;;;;;;14.44;61.15;101972.59;5445868;26;20003;-68
2024/04/11 06:45:43;;;;;;;2.88;0.85;;;;;;;14.40;61.83;101971.72;5447019;26;19999;-68
2024/04/11 06:48:09;;;;;;;2.92;0.90;;;;;;;14.37;61.37;101977.84;5442586;26;20021;-68
2024/04/11 06:50:35;;;;;;;1.67;0.90;;;;;;;14.37;61.03;101975.13;5444363;26;19999;-68
2024/04/11 06:53:04;;;;;;;2.95;0.90;;;;;;;14.53;60.31;101986.00;5449620;26;20018;-68
2024/04/11 06:55:31;;;;;;;3.92;1.00;;;;;;;14.51;60.63;101992.91;5449434;26;19991;-70
2024/04/11 06:57:56;;;;;;;4.40;0.68;;;;;;;14.43;60.99;101997.34;5471858;26;19995;-69
2024/04/11 07:00:26;;;;;;;2.67;1.05;;;;;;;14.11;62.47;101991.03;5447119;26;20009;-68
2024/04/11 07:02:55;;;;;;;1.40;0.80;;;;;;;14.13;62.85;101996.13;5449084;26;20079;-68
2024/04/11 07:05:21;;;;;;;1.95;1.25;;;;;;;14.18;62.56;102010.22;5447955;26;20023;-68
2024/04/11 07:07:54;;;;;;;2.58;0.80;;;;;;;14.38;62.97;102014.66;5444604;26;20460;-68
2024/04/11 07:10:26;;;;;;;1.33;0.90;;;;;;;14.41;65.42;102021.31;5449834;26;20001;-69
2024/04/11 07:12:52;;;;;;;4.53;0.88;;;;;;;14.45;67.77;102014.06;5440167;26;19994;-69
2024/04/11 07:15:28;;;;;;;2.28;0.75;;;;;;;14.42;69.22;102022.88;5447727;26;20056;-68
2024/04/11 07:17:57;;;;;;;3.17;0.57;;;;;;;14.51;72.06;102025.44;5447470;26;20022;-67
2024/04/11 07:20:35;;;;;;;3.83;0.80;;;;;;;14.60;72.65;102039.59;5451636;26;20025;-68
2024/04/11 07:23:04;;;;;;;2.38;1.00;;;;;;;14.41;75.75;102038.38;5441399;26;19999;-69
2024/04/11 07:25:35;;;;;;;1.92;0.63;;;;;;;14.46;75.90;102034.59;5414592;26;20015;-68
2024/04/11 07:28:01;;;;;;;2.88;0.95;;;;;;;14.50;76.38;102034.72;5444666;26;20010;-68
2024/04/11 07:30:29;;;;;;;3.70;0.90;;;;;;;14.46;76.06;102034.59;5450598;26;20515;-68
2024/04/11 07:32:56;;;;;;;4.57;1.38;;;;;;;14.28;76.59;102038.75;5445507;26;20144;-68
2024/04/11 07:35:26;;;;;;;1.27;1.00;;;;;;;14.11;77.14;102050.63;5445801;26;20034;-69
2024/04/11 07:37:58;;;;;;;1.17;0.80;;;;;;;14.24;77.11;102048.69;5471536;26;20090;-68
2024/04/11 07:40:32;;;;;;;3.05;1.02;;;;;;;14.39;76.79;102045.25;5448714;26;20402;-68
2024/04/11 07:43:06;;;;;;;3.33;0.82;;;;;;;14.20;77.16;102050.50;5416167;26;20071;-68
2024/04/11 07:45:40;;;;;;;1.60;1.00;;;;;;;14.32;77.11;102053.97;5445903;26;19995;-69
2024/04/11 07:48:09;;;;;;;2.05;1.00;;;;;;;14.48;76.58;102054.81;5417737;26;19999;-68
2024/04/11 07:50:38;;;;;;;2.30;1.27;;;;;;;14.25;78.75;102056.47;5448516;26;20018;-68
2024/04/11 07:53:14;;;;;;;5.85;0.93;;;;;;;14.37;78.80;102059.16;5410038;26;20021;-69
2024/04/11 07:55:43;;;;;;;2.15;0.95;;;;;;;14.51;80.04;102063.38;5443827;26;19996;-68
2024/04/11 07:58:10;;;;;;;1.27;0.82;;;;;;;14.34;81.21;102073.38;5442014;26;19999;-69
2024/04/11 08:00:47;;;;;;;3.92;1.05;;;;;;;14.37;81.16;102069.22;5406194;26;20003;-68
2024/04/11 08:03:16;;;;;;;1.25;0.93;;;;;;;14.18;82.96;102069.03;5416880;26;20071;-68
2024/04/11 08:05:42;;;;;;;2.55;1.10;;;;;;;14.02;83.77;102073.56;5438644;26;20011;-69
2024/04/11 08:08:07;;;;;;;1.08;0.80;;;;;;;14.02;84.21;102074.38;5446932;26;20075;-68
2024/04/11 08:10:35;;;;;;;1.98;0.98;;;;;;;14.01;85.41;102069.31;5406008;26;20455;-69
2024/04/11 08:13:01;;;;;;;1.67;0.88;;;;;;;13.91;85.28;102073.28;5436741;26;20552;-69
2024/04/11 08:15:26;;;;;;;3.67;0.98;;;;;;;13.96;84.88;102069.53;5415061;26;19995;-68
2024/04/11 08:17:52;;;;;;;1.35;0.90;;;;;;;14.03;85.29;102075.94;5442281;26;19998;-68
2024/04/11 08:20:19;;;;;;;1.40;0.70;;;;;;;13.92;85.79;102072.13;5447626;26;20471;-69
2024/04/11 08:22:47;;;;;;;2.00;1.38;;;;;;;13.97;85.99;102077.31;5377827;26;20011;-68
2024/04/11 08:25:13;;;;;;;4.70;0.82;;;;;;;13.74;86.16;102076.25;5442675;26;20349;-68
2024/04/11 08:27:39;;;;;;;0.98;0.88;;;;;;;13.70;86.42;102083.47;5432260;26;20006;-69
2024/04/11 08:30:09;;;;;;;7.20;1.40;;;;;;;13.54;88.42;102085.28;5417505;26;20014;-69
2024/04/11 08:32:45;;;;;;;4.75;1.05;;;;;;;13.63;88.05;102083.22;5406872;26;19996;-69
2024/04/11 08:35:18;;;;;;;5.68;1.67;;;;;;;13.63;88.50;102083.22;5446402;26;20402;-69
2024/04/11 08:37:51;;;;;;;2.00;1.05;;;;;;;13.55;90.27;102086.84;5442975;26;19998;-69
2024/04/11 08:40:20;;;;;;;2.03;1.00;;;;;;;13.70;89.56;102088.88;5447621;26;19995;-69
2024/04/11 08:42:50;;;;;;;2.70;1.20;;;;;;;13.89;89.69;102093.69;5406701;26;20003;-70
2024/04/11 08:45:17;;;;;;;3.83;1.13;;;;;;;13.70;88.84;102088.09;5411513;26;19996;-67
2024/04/11 08:47:45;;;;;;;7.13;1.40;;;;;;;13.93;88.38;102086.47;5444950;26;20341;-66
2024/04/11 08:50:11;;;;;;;5.53;1.35;;;;;;;13.92;88.30;102090.28;5414838;26;20071;-67
2024/04/11 08:52:41;;;;;;;2.83;1.30;;;;;;;14.03;88.38;102094.13;5417655;26;20010;-67
2024/04/11 08:55:10;;;;;;;8.70;1.20;;;;;;;14.01;87.70;102105.31;5444188;26;20076;-67
2024/04/11 08:57:36;;;;;;;1.17;1.00;;;;;;;14.10;86.26;102102.47;5417190;26;20006;-67
2024/04/11 09:00:09;;;;;;;2.15;1.13;;;;;;;13.97;87.11;102104.41;5407446;26;20582;-67
2024/04/11 09:02:37;;;;;;;3.08;1.55;;;;;;;14.03;86.25;102100.31;5438273;26;20071;-67
2024/04/11 09:05:05;;;;;;;3.03;1.10;;;;;;;14.08;85.70;102110.13;5416902;26;20449;-67
2024/04/11 09:07:32;;;;;;;2.90;0.98;;;;;;;13.78;86.93;102119.66;5441122;26;20003;-67
2024/04/11 09:10:04;;;;;;;6.53;1.50;;;;;;;13.66;88.26;102120.47;5449355;26;20006;-67
2024/04/11 09:12:30;;;;;;;2.67;1.40;;;;;;;13.97;86.91;102117.97;5408004;26;20010;-69
2024/04/11 09:14:59;;;;;;;2.50;1.70;;;;;;;13.93;86.78;102125.19;5446369;26;20412;-66
2024/04/11 09:17:24;;;;;;;4.05;1.05;;;;;;;13.95;87.42;102120.22;5459728;26;20003;-69
2024/04/11 09:20:01;;;;;;;7.35;1.27;;;;;;;13.71;88.56;102122.94;5442889;26;20460;-69
2024/04/11 09:22:28;;;;;;;3.55;1.63;;;;;;;13.92;88.96;102118.19;5438044;26;20061;-69
2024/04/11 09:24:54;;;;;;;1.23;1.08;;;;;;;14.25;87.44;102120.69;5443587;26;20061;-70
2024/04/11 09:27:20;;;;;;;4.03;1.17;;;;;;;14.46;87.22;102124.84;5381887;26;20022;-70
2024/04/11 09:29:48;;;;;;;6.28;1.40;;;;;;;14.41;86.91;102129.72;5441034;26;19999;-69
2024/04/11 09:32:19;;;;;;;1.33;1.20;;;;;;;14.56;87.59;102130.91;5445343;26;20071;-69
2024/04/11 09:34:47;;;;;;;8.10;1.50;;;;;;;14.29;87.45;102137.88;5441613;26;20006;-69
2024/04/11 09:37:16;;;;;;;5.25;1.40;;;;;;;14.26;87.74;102139.34;5442663;26;20289;-69
2024/04/11 09:39:49;;;;;;;6.50;1.55;;;;;;;14.31;88.27;102133.72;5447246;26;19999;-69
2024/04/11 09:42:20;;;;;;;1.67;1.17;;;;;;;14.68;87.20;102149.84;5438145;26;20741;-69
2024/04/11 09:44:48;;;;;;;2.42;1.05;;;;;;;14.85;86.39;102139.47;5446865;26;20002;-67
2024/04/11 09:47:48;;;;;;;2.40;1.35;;;;;;;14.84;86.32;102145.25;5447630;26;19994;-67
2024/04/11 09:50:09;;;;;;;3.80;1.27;;;;;;;14.97;86.62;102157.63;5440621;26;20437;-67
2024/04/11 09:52:40;;;;;;;4.30;1.23;;;;;;;15.03;85.63;102157.03;5446050;26;19999;-68
2024/04/11 09:55:09;;;;;;;1.20;1.00;;;;;;;15.26;84.87;102154.50;5442298;26;19998;-68
2024/04/11 09:57:38;;;;;;;2.83;1.27;;;;;;;15.03;85.26;102159.75;5436958;26;20482;-67
2024/04/11 10:00:18;;;;;;;3.55;1.35;;;;;;;14.82;86.48;102172.75;5409607;26;20441;-67
2024/04/11 10:02:45;;;;;;;2.38;1.27;;;;;;;15.05;86.54;102164.81;5414712;26;20025;-67
2024/04/11 10:05:16;;;;;;;4.88;1.48;;;;;;;14.74;87.67;102176.38;5444746;26;20646;-67
2024/04/11 10:07:42;;;;;;;5.47;1.52;;;;;;;14.94;87.41;102175.38;5439548;26;20002;-68
2024/04/11 10:10:20;;;;;;;4.00;1.63;;;;;;;14.82;87.46;102183.59;5415334;26;19999;-67
2024/04/11 10:12:49;;;;;;;5.82;1.40;;;;;;;14.81;87.67;102178.50;5420321;26;20030;-68
2024/04/11 10:15:19;;;;;;;2.03;1.45;;;;;;;14.63;88.69;102182.63;5446759;26;20006;-68
2024/04/11 10:17:48;;;;;;;1.52;1.20;;;;;;;14.54;90.13;102188.19;5444665;26;20035;-68
2024/04/11 10:20:14;;;;;;;2.05;1.15;;;;;;;14.55;90.33;102178.94;5445287;26;20443;-68
2024/04/11 10:22:43;;;;;;;3.00;1.35;;;;;;;14.80;89.95;102188.56;5415408;26;20456;-68
2024/04/11 10:25:17;;;;;;;1.95;1.25;;;;;;;14.85;88.96;102190.22;5439860;26;20072;-68
2024/04/11 10:27:47;;;;;;;10.57;1.45;;;;;;;14.92;89.33;102187.72;5436654;26;20068;-67
2024/04/11 10:30:17;;;;;;;2.78;1.48;;;;;;;14.85;89.77;102188.31;5444138;26;20396;-68
2024/04/11 10:32:51;;;;;;;2.90;1.77;;;;;;;14.89;89.93;102183.78;5443668;26;20010;-69
2024/04/11 10:35:23;;;;;;;7.45;1.58;;;;;;;15.14;88.85;102201.53;5439562;26;20017;-69
2024/04/11 10:37:49;;;;;;;2.05;1.27;;;;;;;15.30;88.99;102196.91;5420762;26;20003;-69
2024/04/11 10:40:17;;;;;;;6.57;2.15;;;;;;;15.38;88.81;102197.88;5444644;26;20083;-69
2024/04/11 10:43:11;;;;;;;4.53;1.63;;;;;;;15.10;90.03;102200.63;5443095;26;20079;-69
2024/04/11 10:45:30;;;;;;;5.57;1.63;;;;;;;14.96;89.85;102204.91;5440863;26;20644;-69
2024/04/11 10:47:58;;;;;;;11.85;2.08;;;;;;;15.06;89.31;102182.69;5445851;26;19998;-69
2024/04/11 10:50:27;;;;;;;2.05;1.58;;;;;;;15.19;89.94;102179.53;5462262;26;20349;-69
2024/04/11 10:52:52;;;;;;;2.45;1.40;;;;;;;15.54;88.14;102181.63;5439975;26;20009;-69
2024/04/11 10:55:22;;;;;;;3.47;1.30;;;;;;;15.53;88.08;102183.56;5436087;26;20011;-68
2024/04/11 10:58:08;;;;;;;7.90;1.90;;;;;;;15.94;87.36;102188.44;5443653;26;20005;-69
2024/04/11 11:06:34;;;;;;;3.53;1.92;;;;;;;16.08;84.62;102196.13;5436377;26;20042;-69
2024/04/11 11:09:12;;;;;;;4.35;1.48;;;;;;;16.13;84.32;102182.25;5445948;26;20003;-69
2024/04/11 11:11:40;;;;;;;3.53;1.83;;;;;;;16.04;84.97;102184.41;5437684;26;20012;-69
2024/04/11 11:14:08;;;;;;;2.00;1.75;;;;;;;16.19;84.03;102191.72;5440688;26;20482;-69
2024/04/11 11:16:37;;;;;;;4.55;2.05;;;;;;;16.30;82.66;102198.16;5414281;26;19995;-69
2024/04/11 11:19:11;;;;;;;4.82;2.72;;;;;;;16.37;82.26;102203.00;5445147;26;20064;-69
2024/04/11 11:21:42;;;;;;;3.78;1.77;;;;;;;16.14;82.09;102192.00;5442793;26;20079;-68
2024/04/11 11:24:14;;;;;;;3.80;1.90;;;;;;;16.14;81.95;102194.72;5438988;26;19998;-70
2024/04/11 11:26:46;;;;;;;3.92;1.98;;;;;;;16.33;82.33;102196.69;5437028;26;19994;-69
2024/04/11 11:29:19;;;;;;;4.45;2.03;;;;;;;16.28;82.07;102192.28;5441721;26;19991;-69
2024/04/11 11:31:50;;;;;;;4.38;1.70;;;;;;;16.35;82.61;102186.25;5441679;26;19998;-70
2024/04/11 11:34:17;;;;;;;7.40;1.80;;;;;;;16.37;81.65;102192.13;5443984;26;20120;-69
2024/04/11 11:36:44;;;;;;;3.28;1.77;;;;;;;16.32;81.64;102192.41;5442663;26;20484;-69